Time;durP1;ratioP1;P1;durP2;ratioP2;P2;SDS_P1;SDS_P2;PMS_P1;PMS_P2;Temp;Humidity;BMP_temperature;BMP_pressure;BME280_temperature;BME280_humidity;BME280_pressure;Samples;Min_cycle;Max_cycle;Signal;HPM_P1;HPM_P2
2023/04/17 00:00:30;;;;;;;22.92;19.10;;;;;;;6.67;100.00;96203.00;5062722;28;20045;-76
2023/04/17 00:02:57;;;;;;;23.38;19.02;;;;;;;6.70;100.00;96203.72;5060157;28;20075;-76
2023/04/17 00:05:25;;;;;;;24.73;18.58;;;;;;;6.84;100.00;96204.91;5066389;28;20052;-75
2023/04/17 00:07:53;;;;;;;21.00;18.45;;;;;;;6.77;100.00;96201.75;5053634;28;20055;-75
2023/04/17 00:10:20;;;;;;;22.17;19.55;;;;;;;6.79;100.00;96199.94;5063804;28;20044;-76
2023/04/17 00:12:46;;;;;;;22.13;19.60;;;;;;;6.68;100.00;96202.13;5059561;28;20124;-75
2023/04/17 00:15:12;;;;;;;22.80;19.80;;;;;;;6.76;100.00;96200.06;5061737;28;20075;-75
2023/04/17 00:17:39;;;;;;;22.73;20.35;;;;;;;6.71;100.00;96199.41;5061754;28;20049;-75
2023/04/17 00:20:08;;;;;;;23.83;19.52;;;;;;;6.68;100.00;96195.25;5064062;28;20052;-76
2023/04/17 00:22:36;;;;;;;26.95;20.20;;;;;;;6.76;100.00;96198.31;5055434;28;20053;-76
2023/04/17 00:25:03;;;;;;;22.60;20.10;;;;;;;6.66;100.00;96204.75;5064053;28;20076;-75
2023/04/17 00:27:30;;;;;;;26.90;20.80;;;;;;;6.61;100.00;96201.53;5069607;28;20045;-75
2023/04/17 00:29:56;;;;;;;22.25;19.00;;;;;;;6.64;100.00;96196.25;5055997;28;20502;-76
2023/04/17 00:32:23;;;;;;;24.65;20.85;;;;;;;6.62;100.00;96189.50;5056976;28;20055;-75
2023/04/17 00:34:50;;;;;;;21.20;19.10;;;;;;;6.64;100.00;96183.41;5058513;28;20547;-77
2023/04/17 00:37:16;;;;;;;21.33;18.50;;;;;;;6.77;100.00;96188.88;5052469;28;20091;-76
2023/04/17 00:39:44;;;;;;;28.75;20.02;;;;;;;6.73;100.00;96188.16;5061460;28;20056;-76
2023/04/17 00:42:10;;;;;;;22.55;19.00;;;;;;;6.61;100.00;96186.09;5062371;28;20054;-75
2023/04/17 00:44:37;;;;;;;22.50;19.20;;;;;;;6.69;100.00;96185.78;5059947;28;20538;-76
2023/04/17 00:47:03;;;;;;;21.27;18.48;;;;;;;6.65;100.00;96184.22;5060144;28;20696;-77
2023/04/17 00:49:30;;;;;;;25.38;19.30;;;;;;;6.62;100.00;96179.19;5060580;28;20399;-76
2023/04/17 00:51:57;;;;;;;35.92;21.00;;;;;;;6.57;100.00;96181.97;5060294;28;20047;-77
2023/04/17 00:54:24;;;;;;;23.38;19.05;;;;;;;6.63;100.00;96186.00;5062987;28;20624;-77
2023/04/17 00:56:56;;;;;;;19.52;17.52;;;;;;;6.60;100.00;96183.56;5067215;28;20052;-77
2023/04/17 00:59:23;;;;;;;21.95;19.17;;;;;;;6.61;100.00;96177.53;5060096;28;20052;-76
2023/04/17 01:01:50;;;;;;;22.58;19.95;;;;;;;6.48;100.00;96178.00;5066100;28;20041;-76
2023/04/17 01:04:16;;;;;;;21.55;17.75;;;;;;;6.55;100.00;96179.44;5060396;28;20071;-76
2023/04/17 01:06:43;;;;;;;22.58;19.17;;;;;;;6.65;100.00;96169.63;5057451;28;20052;-76
2023/04/17 01:09:09;;;;;;;20.83;18.65;;;;;;;6.57;100.00;96176.81;5064771;28;20045;-76
2023/04/17 01:11:36;;;;;;;23.58;18.80;;;;;;;6.53;100.00;96170.97;5056134;28;20049;-76
2023/04/17 01:14:04;;;;;;;23.55;19.48;;;;;;;6.60;100.00;96171.56;5063315;28;20442;-76
2023/04/17 01:16:30;;;;;;;22.75;17.98;;;;;;;6.57;100.00;96171.66;5055706;28;20052;-76
2023/04/17 01:18:57;;;;;;;23.73;19.25;;;;;;;6.60;100.00;96170.69;5062271;28;20060;-76
2023/04/17 01:21:23;;;;;;;19.15;17.15;;;;;;;6.58;100.00;96172.50;5055787;28;20053;-76
2023/04/17 01:23:51;;;;;;;21.75;18.25;;;;;;;6.55;100.00;96170.88;5065571;28;20040;-76
2023/04/17 01:26:21;;;;;;;20.15;17.83;;;;;;;6.55;100.00;96166.56;5061781;28;20044;-76
2023/04/17 01:28:52;;;;;;;23.77;17.58;;;;;;;6.58;100.00;96173.34;5057798;28;20055;-76
2023/04/17 01:31:18;;;;;;;20.75;17.98;;;;;;;6.51;100.00;96170.16;5068573;28;20052;-76
2023/04/17 01:33:45;;;;;;;20.45;18.30;;;;;;;6.64;100.00;96167.13;5063308;28;20041;-76
2023/04/17 01:36:11;;;;;;;20.50;17.27;;;;;;;6.66;100.00;96171.28;5065483;28;20051;-76
2023/04/17 01:38:38;;;;;;;20.10;17.67;;;;;;;6.60;100.00;96168.13;5058367;28;20052;-76
2023/04/17 01:41:08;;;;;;;19.48;17.52;;;;;;;6.65;100.00;96167.03;5063459;28;20048;-76
2023/04/17 01:43:38;;;;;;;20.02;16.92;;;;;;;6.64;100.00;96172.28;5062605;28;20059;-77
2023/04/17 01:46:05;;;;;;;21.92;17.90;;;;;;;6.57;100.00;96165.69;5057719;28;20490;-77
2023/04/17 01:48:31;;;;;;;19.83;17.73;;;;;;;6.57;100.00;96171.66;5062373;28;20048;-75
2023/04/17 01:50:58;;;;;;;23.75;19.58;;;;;;;6.68;100.00;96173.81;5064875;28;20048;-77
2023/04/17 01:53:25;;;;;;;19.92;17.75;;;;;;;6.65;100.00;96173.94;5056272;28;20045;-76
2023/04/17 01:55:51;;;;;;;20.65;17.35;;;;;;;6.65;100.00;96171.34;5060971;28;20045;-77
2023/04/17 01:58:17;;;;;;;26.70;19.85;;;;;;;6.89;100.00;96170.31;5062619;28;20049;-76
2023/04/17 02:00:46;;;;;;;26.95;18.77;;;;;;;6.74;100.00;96173.53;5055651;28;20048;-77
2023/04/17 02:03:13;;;;;;;19.45;17.45;;;;;;;6.72;100.00;96173.63;5059054;28;20049;-77
2023/04/17 02:05:40;;;;;;;30.05;19.08;;;;;;;6.64;100.00;96177.41;5057822;28;20565;-77
2023/04/17 02:08:07;;;;;;;21.90;18.88;;;;;;;6.82;100.00;96168.91;5057054;28;20122;-76
2023/04/17 02:10:33;;;;;;;22.73;19.65;;;;;;;6.77;100.00;96166.53;5058646;28;20045;-77
2023/04/17 02:13:00;;;;;;;24.30;18.38;;;;;;;6.80;100.00;96163.00;5061011;28;20044;-76
2023/04/17 02:15:26;;;;;;;20.35;17.75;;;;;;;6.68;100.00;96156.63;5057663;28;20048;-77
2023/04/17 02:17:54;;;;;;;19.63;17.52;;;;;;;6.66;100.00;96155.00;5063424;28;20521;-76
2023/04/17 02:20:21;;;;;;;24.58;19.52;;;;;;;6.65;100.00;96164.47;5057884;28;20045;-76
2023/04/17 02:22:47;;;;;;;21.88;17.05;;;;;;;6.61;100.00;96159.53;5054972;28;20040;-76
2023/04/17 02:25:14;;;;;;;22.73;18.77;;;;;;;6.56;100.00;96157.09;5055549;28;20048;-76
2023/04/17 02:27:40;;;;;;;21.10;18.80;;;;;;;6.52;100.00;96153.81;5063431;28;20132;-76
2023/04/17 02:30:08;;;;;;;20.80;18.60;;;;;;;6.42;100.00;96155.13;5064025;28;20087;-76
2023/04/17 02:32:34;;;;;;;22.35;19.90;;;;;;;6.44;100.00;96150.72;5057311;28;20053;-76
2023/04/17 02:35:02;;;;;;;25.38;20.80;;;;;;;6.43;100.00;96155.94;5067312;28;20044;-76
2023/04/17 02:37:29;;;;;;;22.20;18.65;;;;;;;6.46;100.00;96156.66;5066812;28;20419;-76
2023/04/17 02:39:55;;;;;;;21.40;19.10;;;;;;;6.36;100.00;96155.34;5059023;28;20053;-76
2023/04/17 02:42:22;;;;;;;28.08;18.67;;;;;;;6.34;100.00;96153.72;5061016;28;20044;-76
2023/04/17 02:44:48;;;;;;;21.23;18.38;;;;;;;6.40;100.00;96156.06;5062328;28;20526;-76
2023/04/17 02:47:15;;;;;;;24.73;18.52;;;;;;;6.34;100.00;96148.59;5053886;28;20052;-76
2023/04/17 02:49:41;;;;;;;27.65;19.02;;;;;;;6.35;100.00;96152.84;5060140;28;20049;-77
2023/04/17 02:52:09;;;;;;;26.27;19.42;;;;;;;6.30;100.00;96155.59;5058699;28;20076;-76
2023/04/17 02:54:35;;;;;;;22.75;18.42;;;;;;;6.37;100.00;96148.47;5057754;28;20055;-76
2023/04/17 02:57:02;;;;;;;22.38;18.80;;;;;;;6.36;100.00;96155.34;5063718;28;20048;-76
2023/04/17 02:59:28;;;;;;;21.60;18.30;;;;;;;6.42;100.00;96162.00;5057444;28;20048;-76
2023/04/17 03:01:58;;;;;;;25.95;19.45;;;;;;;6.47;100.00;96152.34;5060991;28;20608;-76
2023/04/17 03:04:26;;;;;;;25.85;19.35;;;;;;;6.45;100.00;96156.72;5055200;28;20457;-76
2023/04/17 03:06:53;;;;;;;23.30;18.75;;;;;;;6.39;100.00;96147.53;5064640;28;20044;-77
2023/04/17 03:09:21;;;;;;;22.67;18.75;;;;;;;6.48;100.00;96156.59;5061284;28;20051;-77
2023/04/17 03:11:47;;;;;;;22.27;19.90;;;;;;;6.56;100.00;96154.53;5054406;28;20048;-76
2023/04/17 03:14:14;;;;;;;26.45;20.38;;;;;;;6.50;100.00;96158.22;5056958;28;20438;-77
2023/04/17 03:16:40;;;;;;;25.48;19.77;;;;;;;6.49;100.00;96158.28;5059610;28;20059;-76
2023/04/17 03:19:07;;;;;;;21.17;18.00;;;;;;;6.63;100.00;96161.09;5056840;28;20049;-76
2023/04/17 03:21:33;;;;;;;21.15;18.70;;;;;;;6.56;100.00;96157.09;5061781;28;20052;-77
2023/04/17 03:24:00;;;;;;;27.02;20.48;;;;;;;6.44;100.00;96162.75;5061189;28;20051;-77
2023/04/17 03:26:28;;;;;;;26.52;20.92;;;;;;;6.70;100.00;96159.97;5070131;28;20418;-77
2023/04/17 03:28:54;;;;;;;21.88;19.33;;;;;;;6.66;100.00;96160.16;5062001;28;20044;-76
2023/04/17 03:31:22;;;;;;;28.90;20.75;;;;;;;6.63;100.00;96161.09;5067609;28;20044;-76
2023/04/17 03:33:48;;;;;;;23.13;19.60;;;;;;;6.51;100.00;96159.88;5055525;28;20095;-76
2023/04/17 03:36:16;;;;;;;24.80;19.80;;;;;;;6.52;100.00;96168.44;5058982;28;20047;-76
2023/04/17 03:38:43;;;;;;;27.05;20.88;;;;;;;6.40;100.00;96161.22;5063826;28;20056;-76
2023/04/17 03:41:10;;;;;;;23.20;20.48;;;;;;;6.44;100.00;96162.75;5064655;28;20053;-77
2023/04/17 03:43:37;;;;;;;23.70;20.95;;;;;;;6.61;100.00;96162.09;5061183;28;20044;-76
2023/04/17 03:46:04;;;;;;;25.58;21.08;;;;;;;6.45;100.00;96159.28;5056386;28;20492;-76
2023/04/17 03:48:31;;;;;;;21.65;19.35;;;;;;;6.42;100.00;96167.16;5052699;28;20056;-77
2023/04/17 03:50:57;;;;;;;23.48;21.00;;;;;;;6.46;100.00;96166.97;5061013;28;20052;-76
2023/04/17 03:53:24;;;;;;;28.83;21.83;;;;;;;6.40;100.00;96174.06;5054285;28;20045;-77
2023/04/17 03:55:50;;;;;;;29.60;23.00;;;;;;;6.65;100.00;96166.22;5064572;28;20051;-76
2023/04/17 03:58:17;;;;;;;26.80;20.83;;;;;;;6.46;100.00;96164.38;5066877;28;20052;-77
2023/04/17 04:00:45;;;;;;;28.50;22.50;;;;;;;6.44;100.00;96173.88;5057249;28;20057;-76
2023/04/17 04:03:11;;;;;;;24.92;22.25;;;;;;;6.35;100.00;96168.28;5056991;28;20421;-75
2023/04/17 04:05:38;;;;;;;24.00;21.38;;;;;;;6.38;100.00;96176.72;5052345;28;20056;-76
2023/04/17 04:08:04;;;;;;;24.00;21.45;;;;;;;6.41;100.00;96179.16;5058795;28;20048;-76
2023/04/17 04:10:32;;;;;;;27.42;21.52;;;;;;;6.32;100.00;96170.97;5055032;28;20526;-77
2023/04/17 04:12:58;;;;;;;23.13;20.63;;;;;;;6.39;100.00;96175.81;5055369;28;20499;-77
2023/04/17 04:15:25;;;;;;;27.10;20.08;;;;;;;6.38;100.00;96174.16;5061649;28;20048;-77
2023/04/17 04:17:52;;;;;;;21.80;19.52;;;;;;;6.40;100.00;96172.34;5055974;28;20049;-74
2023/04/17 04:20:21;;;;;;;21.98;19.10;;;;;;;6.28;100.00;96176.25;5055488;28;20044;-75
2023/04/17 04:22:47;;;;;;;29.30;19.38;;;;;;;6.36;100.00;96175.09;5066496;28;20415;-76
2023/04/17 04:25:14;;;;;;;24.08;19.70;;;;;;;6.36;100.00;96175.09;5062297;28;20040;-76
2023/04/17 04:27:44;;;;;;;22.63;19.25;;;;;;;6.55;100.00;96178.59;5058986;28;20083;-76
2023/04/17 04:30:12;;;;;;;26.33;18.83;;;;;;;6.45;100.00;96178.16;5060937;28;20132;-75
2023/04/17 04:32:38;;;;;;;24.33;19.77;;;;;;;6.60;100.00;96176.69;5062349;28;20053;-75
2023/04/17 04:35:08;;;;;;;22.83;19.17;;;;;;;6.70;100.00;96180.56;5062163;28;20056;-76
2023/04/17 04:37:35;;;;;;;23.75;19.70;;;;;;;6.61;100.00;96180.09;5062647;28;20572;-77
2023/04/17 04:40:09;;;;;;;22.13;19.38;;;;;;;6.61;100.00;96180.94;5061470;28;20044;-77
2023/04/17 04:42:35;;;;;;;22.98;20.52;;;;;;;6.67;100.00;96187.56;5067094;28;20056;-77
2023/04/17 04:45:02;;;;;;;22.98;18.42;;;;;;;6.61;100.00;96186.09;5055290;28;20053;-76
2023/04/17 04:47:28;;;;;;;21.33;19.02;;;;;;;6.62;100.00;96192.91;5064530;28;20048;-77
2023/04/17 04:49:55;;;;;;;20.83;18.63;;;;;;;6.73;100.00;96184.75;5064945;28;20049;-75
2023/04/17 04:52:22;;;;;;;21.05;17.05;;;;;;;6.57;100.00;96183.72;5063590;28;20067;-75
2023/04/17 04:54:49;;;;;;;19.75;17.73;;;;;;;6.43;100.00;96190.22;5067886;28;20040;-76
2023/04/17 04:57:15;;;;;;;24.23;19.05;;;;;;;6.53;100.00;96191.53;5064406;28;20132;-77
2023/04/17 04:59:42;;;;;;;23.17;18.23;;;;;;;6.52;100.00;96195.00;5060050;28;20056;-77
2023/04/17 05:02:08;;;;;;;19.15;16.42;;;;;;;6.41;100.00;96191.19;5064223;28;20041;-76
2023/04/17 05:04:35;;;;;;;22.67;17.70;;;;;;;6.39;100.00;96198.13;5062831;28;20633;-75
2023/04/17 05:07:03;;;;;;;20.45;18.25;;;;;;;6.31;100.00;96206.16;5066524;28;20068;-76
2023/04/17 05:09:31;;;;;;;21.25;18.35;;;;;;;6.44;100.00;96197.03;5053575;28;20044;-76
2023/04/17 05:11:58;;;;;;;22.88;16.77;;;;;;;6.54;100.00;96205.25;5055803;28;20056;-76
2023/04/17 05:14:24;;;;;;;20.73;17.25;;;;;;;6.42;100.00;96201.44;5058638;28;20048;-77
2023/04/17 05:16:51;;;;;;;24.48;20.20;;;;;;;6.53;100.00;96206.16;5071822;28;20135;-76
2023/04/17 05:19:17;;;;;;;22.60;18.33;;;;;;;6.50;100.00;96204.53;5057350;28;20068;-75
2023/04/17 05:21:44;;;;;;;22.73;18.00;;;;;;;6.42;100.00;96203.16;5067371;28;20047;-77
2023/04/17 05:24:10;;;;;;;18.67;16.67;;;;;;;6.58;100.00;96208.53;5071436;28;20052;-77
2023/04/17 05:26:38;;;;;;;31.58;18.52;;;;;;;6.51;100.00;96202.78;5059284;28;20068;-78
2023/04/17 05:29:05;;;;;;;23.05;17.67;;;;;;;6.44;100.00;96207.34;5063215;28;20052;-78
2023/04/17 05:31:31;;;;;;;21.23;17.50;;;;;;;6.45;100.00;96205.59;5062609;28;20053;-77
2023/04/17 05:33:58;;;;;;;24.75;18.67;;;;;;;6.46;100.00;96212.44;5058182;28;20040;-75
2023/04/17 05:36:25;;;;;;;23.65;18.38;;;;;;;6.64;100.00;96210.88;5063872;28;20045;-76
2023/04/17 05:38:52;;;;;;;21.17;18.75;;;;;;;6.41;100.00;96201.47;5060522;28;20099;-75
2023/04/17 05:41:18;;;;;;;20.80;18.15;;;;;;;6.45;100.00;96210.75;5057751;28;20053;-77
2023/04/17 05:43:46;;;;;;;23.92;17.73;;;;;;;6.43;100.00;96209.97;5059660;28;20043;-77
2023/04/17 05:46:12;;;;;;;22.45;17.23;;;;;;;6.45;100.00;96218.47;5064721;28;20052;-77
2023/04/17 05:48:39;;;;;;;20.73;16.85;;;;;;;6.41;100.00;96214.34;5056405;28;20045;-76
2023/04/17 05:51:06;;;;;;;24.52;18.73;;;;;;;6.29;100.00;96210.50;5064419;28;20052;-77
2023/04/17 05:53:32;;;;;;;20.67;18.50;;;;;;;6.40;100.00;96216.06;5056499;28;20044;-76
2023/04/17 05:55:58;;;;;;;21.48;18.05;;;;;;;6.30;100.00;96214.75;5062916;28;20045;-76
2023/04/17 05:58:25;;;;;;;21.85;19.52;;;;;;;6.43;100.00;96215.97;5056658;28;20040;-77
2023/04/17 06:00:53;;;;;;;23.95;20.15;;;;;;;6.62;100.00;96215.22;5057978;28;20520;-76
2023/04/17 06:03:20;;;;;;;22.08;18.52;;;;;;;6.41;100.00;96215.16;5066791;28;20426;-76
2023/04/17 06:05:47;;;;;;;21.95;19.73;;;;;;;6.26;100.00;96213.19;5058614;28;20076;-76
2023/04/17 06:08:13;;;;;;;22.63;18.25;;;;;;;6.30;100.00;96207.03;5060295;28;20048;-76
2023/04/17 06:10:40;;;;;;;21.95;18.35;;;;;;;6.37;100.00;96216.19;5054260;28;20060;-76
2023/04/17 06:13:07;;;;;;;21.95;18.90;;;;;;;6.35;100.00;96214.59;5056096;28;20082;-76
2023/04/17 06:15:33;;;;;;;20.90;18.83;;;;;;;6.42;100.00;96216.88;5059766;28;20052;-75
2023/04/17 06:18:01;;;;;;;27.92;20.08;;;;;;;6.19;100.00;96211.75;5053664;28;20051;-76
2023/04/17 06:20:27;;;;;;;23.10;19.10;;;;;;;6.32;100.00;96215.53;5055356;28;20045;-70
2023/04/17 06:22:55;;;;;;;23.38;18.92;;;;;;;6.30;100.00;96225.91;5066061;28;20048;-77
2023/04/17 06:25:22;;;;;;;26.15;18.02;;;;;;;6.43;100.00;96217.69;5058256;28;20056;-77
2023/04/17 06:27:48;;;;;;;20.35;18.00;;;;;;;6.55;100.00;96223.19;5052462;28;20049;-74
2023/04/17 06:30:15;;;;;;;19.50;17.40;;;;;;;6.57;100.00;96217.16;5056708;28;20045;-75
2023/04/17 06:32:42;;;;;;;20.45;17.33;;;;;;;6.53;100.00;96225.00;5053748;28;20079;-76
2023/04/17 06:35:11;;;;;;;17.08;15.35;;;;;;;6.50;100.00;96229.44;5060599;28;20075;-77
2023/04/17 06:37:37;;;;;;;17.77;15.50;;;;;;;6.49;100.00;96228.59;5062907;28;20044;-76
2023/04/17 06:40:04;;;;;;;20.38;15.65;;;;;;;6.69;100.00;96235.50;5052670;28;20052;-77
2023/04/17 06:42:32;;;;;;;18.48;14.27;;;;;;;6.57;100.00;96232.59;5065627;28;20051;-77
2023/04/17 06:44:59;;;;;;;23.88;14.50;;;;;;;6.54;100.00;96236.13;5052117;28;20041;-76
2023/04/17 06:47:25;;;;;;;15.90;13.65;;;;;;;6.53;100.00;96231.88;5056068;28;20049;-76
2023/04/17 06:49:52;;;;;;;25.27;15.85;;;;;;;6.43;100.00;96231.41;5060243;28;20059;-77
2023/04/17 06:52:21;;;;;;;19.65;15.02;;;;;;;6.44;100.00;96234.81;5060501;28;20047;-77
2023/04/17 06:54:47;;;;;;;16.25;13.35;;;;;;;6.55;100.00;96230.06;5056733;28;20055;-77
2023/04/17 06:57:14;;;;;;;14.95;13.30;;;;;;;6.57;100.00;96240.31;5061561;28;20048;-76
2023/04/17 06:59:40;;;;;;;15.65;13.77;;;;;;;6.49;100.00;96236.31;5061360;28;20095;-76
2023/04/17 07:02:07;;;;;;;18.10;14.05;;;;;;;6.67;100.00;96233.88;5060769;28;20056;-77
2023/04/17 07:04:33;;;;;;;14.20;12.70;;;;;;;6.70;100.00;96232.03;5053141;28;20052;-76
2023/04/17 07:07:00;;;;;;;12.98;11.65;;;;;;;6.71;100.00;96240.59;5066369;28;20056;-75
2023/04/17 07:09:28;;;;;;;14.85;11.82;;;;;;;6.71;100.00;96241.44;5058097;28;20052;-74
2023/04/17 07:11:54;;;;;;;17.13;12.82;;;;;;;6.74;100.00;96245.63;5067269;28;20047;-75
2023/04/17 07:14:21;;;;;;;16.77;12.48;;;;;;;6.65;100.00;96243.44;5057201;28;20041;-74
2023/04/17 07:16:48;;;;;;;11.70;10.45;;;;;;;6.78;100.00;96244.59;5059164;28;20131;-75
2023/04/17 07:19:14;;;;;;;12.40;10.35;;;;;;;6.58;100.00;96249.72;5055715;28;20056;-75
2023/04/17 07:21:41;;;;;;;15.27;10.95;;;;;;;6.64;100.00;96244.34;5054331;28;20112;-74
2023/04/17 07:24:07;;;;;;;11.35;10.23;;;;;;;6.51;100.00;96249.94;5059499;28;20048;-74
2023/04/17 07:26:35;;;;;;;13.82;9.82;;;;;;;6.60;100.00;96247.91;5059553;28;20044;-76
2023/04/17 07:29:02;;;;;;;12.45;9.45;;;;;;;6.67;100.00;96246.75;5059793;28;20052;-76
2023/04/17 07:31:28;;;;;;;10.85;9.85;;;;;;;6.76;100.00;96251.56;5060051;28;20053;-76
2023/04/17 07:33:55;;;;;;;10.57;9.25;;;;;;;6.78;100.00;96252.31;5052597;28;20055;-76
2023/04/17 07:36:22;;;;;;;11.43;10.23;;;;;;;6.91;100.00;96255.25;5056142;28;20052;-76
2023/04/17 07:38:49;;;;;;;12.02;10.75;;;;;;;6.93;100.00;96250.84;5063952;28;20049;-76
2023/04/17 07:41:15;;;;;;;10.38;9.20;;;;;;;6.68;100.00;96258.75;5052388;28;20051;-76
2023/04/17 07:43:43;;;;;;;13.93;9.25;;;;;;;6.55;100.00;96256.63;5057743;28;20048;-75
2023/04/17 07:46:10;;;;;;;9.75;8.65;;;;;;;6.65;100.00;96256.28;5053642;28;20045;-76
2023/04/17 07:48:36;;;;;;;11.55;10.35;;;;;;;6.88;100.00;96257.94;5054157;28;20045;-76
2023/04/17 07:51:03;;;;;;;10.82;9.50;;;;;;;6.90;100.00;96261.31;5070407;28;20059;-75
2023/04/17 07:53:29;;;;;;;11.77;10.38;;;;;;;6.80;100.00;96260.81;5085066;28;20116;-76
2023/04/17 07:55:57;;;;;;;11.98;10.68;;;;;;;6.94;100.00;96263.69;5075008;28;20041;-76
2023/04/17 07:58:25;;;;;;;12.98;10.48;;;;;;;7.06;100.00;96264.09;5067822;28;20070;-76
2023/04/17 08:00:53;;;;;;;11.32;10.10;;;;;;;7.19;100.00;96266.09;5071921;28;20073;-76
2023/04/17 08:03:22;;;;;;;13.90;9.85;;;;;;;7.00;100.00;96270.31;5072143;28;20057;-74
2023/04/17 08:05:50;;;;;;;9.48;8.48;;;;;;;6.76;100.00;96265.25;5072541;28;20499;-74
2023/04/17 08:08:18;;;;;;;9.35;8.48;;;;;;;7.03;100.00;96268.44;5076923;28;20049;-75
2023/04/17 08:10:45;;;;;;;9.75;8.75;;;;;;;7.06;100.00;96269.25;5079449;28;20048;-76
2023/04/17 08:13:11;;;;;;;10.27;9.00;;;;;;;6.91;100.00;96275.84;5070438;28;20044;-75
2023/04/17 08:15:39;;;;;;;11.43;8.23;;;;;;;7.02;100.00;96278.81;5057998;28;20045;-76
2023/04/17 08:18:08;;;;;;;9.23;7.88;;;;;;;6.87;100.00;96272.56;5065678;28;20055;-76
2023/04/17 08:20:34;;;;;;;7.82;7.03;;;;;;;6.86;100.00;96277.75;5078907;28;20061;-76
2023/04/17 08:23:01;;;;;;;9.35;7.43;;;;;;;6.94;100.00;96281.72;5082658;28;20055;-76
2023/04/17 08:25:28;;;;;;;8.30;7.25;;;;;;;6.94;100.00;96279.13;5070802;28;20546;-77
2023/04/17 08:27:55;;;;;;;8.40;7.60;;;;;;;6.90;100.00;96277.59;5068845;28;20044;-76
2023/04/17 08:30:22;;;;;;;11.65;9.20;;;;;;;7.08;100.00;96285.44;5067496;28;20140;-75
2023/04/17 08:32:50;;;;;;;12.57;10.50;;;;;;;7.15;100.00;96286.88;5066879;28;20453;-76
2023/04/17 08:35:19;;;;;;;11.27;9.30;;;;;;;7.07;100.00;96284.63;5076529;28;20385;-75
2023/04/17 08:37:46;;;;;;;10.60;9.50;;;;;;;6.94;100.00;96283.47;5081244;28;20044;-75
2023/04/17 08:40:13;;;;;;;11.65;10.45;;;;;;;7.05;100.00;96290.75;5070369;28;20528;-75
2023/04/17 08:42:41;;;;;;;11.77;10.57;;;;;;;7.11;100.00;96290.47;5061661;28;20045;-75
2023/04/17 08:45:10;;;;;;;11.07;9.95;;;;;;;7.04;100.00;96287.31;5082541;28;20041;-76
2023/04/17 08:47:38;;;;;;;14.98;10.85;;;;;;;6.98;100.00;96291.00;5072955;28;20055;-76
2023/04/17 08:50:08;;;;;;;12.05;10.93;;;;;;;7.17;100.00;96285.94;5073859;28;20514;-76
2023/04/17 08:52:38;;;;;;;15.85;10.77;;;;;;;7.09;100.00;96287.16;5070852;28;20107;-75
2023/04/17 08:55:06;;;;;;;10.57;9.48;;;;;;;6.90;100.00;96292.22;5076808;28;20040;-75
2023/04/17 08:57:32;;;;;;;16.70;10.38;;;;;;;6.97;100.00;96286.75;5071469;28;20091;-76
2023/04/17 08:59:59;;;;;;;10.63;9.23;;;;;;;7.08;100.00;96286.28;5068421;28;20051;-76
2023/04/17 09:02:25;;;;;;;9.70;8.70;;;;;;;7.20;100.00;96290.97;5074042;28;20131;-75
2023/04/17 09:04:52;;;;;;;13.52;7.97;;;;;;;7.04;100.00;96297.63;5070094;28;20051;-75
2023/04/17 09:07:29;;;;;;;11.82;7.95;;;;;;;7.00;100.00;96298.63;5079789;28;20048;-75
2023/04/17 09:09:57;;;;;;;9.35;8.38;;;;;;;7.07;100.00;96294.09;5074946;28;20140;-75
2023/04/17 09:12:25;;;;;;;11.43;8.75;;;;;;;7.10;100.00;96296.53;5075674;28;20052;-75
2023/04/17 09:14:52;;;;;;;14.15;8.82;;;;;;;7.12;100.00;96287.00;5062906;28;20049;-75
2023/04/17 09:17:20;;;;;;;10.75;9.65;;;;;;;7.21;100.00;96291.78;5079339;28;20127;-76
2023/04/17 09:20:06;;;;;;;12.68;9.98;;;;;;;7.22;100.00;96296.03;5065241;28;20043;-76
2023/04/17 09:22:34;;;;;;;10.40;9.40;;;;;;;7.27;100.00;96301.84;5080331;28;20040;-75
2023/04/17 09:25:02;;;;;;;13.50;11.02;;;;;;;7.33;100.00;96296.44;5074150;28;20045;-75
2023/04/17 09:27:29;;;;;;;10.95;9.68;;;;;;;7.20;100.00;96296.09;5069085;28;20123;-75
2023/04/17 09:29:58;;;;;;;12.38;11.00;;;;;;;7.34;100.00;96299.84;5081366;28;20490;-76
2023/04/17 09:32:25;;;;;;;11.10;10.00;;;;;;;7.17;100.00;96297.97;5072415;28;20496;-76
2023/04/17 09:34:52;;;;;;;10.10;9.07;;;;;;;7.27;100.00;96294.13;5082348;28;20418;-75
2023/04/17 09:37:18;;;;;;;10.18;8.98;;;;;;;7.30;100.00;96299.13;5080333;28;20048;-75
2023/04/17 09:39:59;;;;;;;14.40;8.95;;;;;;;7.34;100.00;96303.28;5083179;28;20418;-75
2023/04/17 09:42:27;;;;;;;9.27;8.35;;;;;;;7.34;100.00;96299.84;5080895;28;20045;-75
2023/04/17 09:44:54;;;;;;;11.77;9.38;;;;;;;7.48;100.00;96305.25;5085409;28;20040;-76
2023/04/17 09:47:22;;;;;;;9.65;8.65;;;;;;;7.54;100.00;96305.00;5073339;28;20048;-75
2023/04/17 09:49:51;;;;;;;9.45;8.55;;;;;;;7.60;100.00;96302.19;5072096;28;20040;-76
2023/04/17 09:52:19;;;;;;;9.02;7.85;;;;;;;7.66;100.00;96301.06;5082993;28;20047;-76
2023/04/17 09:54:48;;;;;;;12.13;7.43;;;;;;;7.61;100.00;96306.44;5078786;28;20040;-76
2023/04/17 09:57:14;;;;;;;8.63;6.85;;;;;;;7.51;100.00;96299.97;5078549;28;20131;-76
2023/04/17 09:59:46;;;;;;;10.07;7.60;;;;;;;7.45;100.00;96305.38;5075677;28;20135;-76
2023/04/17 10:02:15;;;;;;;8.20;7.40;;;;;;;7.76;100.00;96300.63;5080907;28;20056;-76
2023/04/17 10:04:42;;;;;;;7.88;7.10;;;;;;;7.74;100.00;96304.97;5069851;28;20465;-76
2023/04/17 10:07:11;;;;;;;8.45;7.45;;;;;;;7.65;100.00;96301.97;5077554;28;20055;-75
2023/04/17 10:09:40;;;;;;;10.98;8.02;;;;;;;7.97;100.00;96296.28;5075090;28;20051;-76
2023/04/17 10:12:11;;;;;;;8.48;7.68;;;;;;;7.99;100.00;96296.19;5081613;28;20051;-76
2023/04/17 10:14:39;;;;;;;8.50;7.65;;;;;;;7.93;100.00;96293.88;5069307;28;20044;-76
2023/04/17 10:17:25;;;;;;;9.35;6.95;;;;;;;8.00;100.00;96293.53;5071996;28;20157;-76
2023/04/17 10:19:52;;;;;;;8.70;7.80;;;;;;;8.12;100.00;96288.72;5069629;28;20418;-76
2023/04/17 10:22:39;;;;;;;7.82;7.00;;;;;;;8.02;100.00;96288.31;5073011;28;20048;-76
2023/04/17 10:25:20;;;;;;;8.40;7.28;;;;;;;7.89;100.00;96290.59;5070173;28;20037;-76
2023/04/17 10:27:50;;;;;;;6.90;6.28;;;;;;;7.86;100.00;96293.31;5074805;28;20105;-76
2023/04/17 10:30:17;;;;;;;6.97;6.28;;;;;;;7.85;100.00;96291.63;5077783;28;20049;-76
2023/04/17 10:32:46;;;;;;;8.27;7.55;;;;;;;8.05;100.00;96295.09;5060707;28;20075;-77
2023/04/17 10:35:43;;;;;;;10.25;8.23;;;;;;;7.98;100.00;96281.63;5077707;28;20480;-76
2023/04/17 10:38:10;;;;;;;9.55;8.20;;;;;;;8.23;100.00;96284.78;4989241;28;20054;-76
2023/04/17 10:40:38;;;;;;;12.18;8.60;;;;;;;8.17;100.00;96282.47;5054245;28;20056;-76
2023/04/17 10:43:08;;;;;;;10.02;8.60;;;;;;;8.31;100.00;96279.28;5066446;28;20044;-76
2023/04/17 10:45:55;;;;;;;15.43;8.38;;;;;;;8.26;100.00;96283.78;5064962;28;20048;-71
2023/04/17 10:48:26;;;;;;;10.88;8.73;;;;;;;8.20;100.00;96281.50;5073994;28;20070;-77
2023/04/17 10:50:53;;;;;;;9.52;8.60;;;;;;;8.18;100.00;96278.97;5059519;28;20041;-78
2023/04/17 10:53:40;;;;;;;10.82;8.45;;;;;;;7.99;100.00;96283.28;5079912;28;20052;-77
2023/04/17 10:56:07;;;;;;;9.23;8.27;;;;;;;8.11;100.00;96281.91;5078185;28;20049;-77
2023/04/17 10:58:38;;;;;;;10.55;9.25;;;;;;;8.27;100.00;96275.16;5079641;28;20056;-77
2023/04/17 11:01:10;;;;;;;10.80;9.73;;;;;;;8.37;100.00;96280.72;5077300;28;20438;-77
2023/04/17 11:03:38;;;;;;;10.35;9.20;;;;;;;8.48;100.00;96269.03;5069082;28;20060;-76
2023/04/17 11:06:06;;;;;;;11.90;9.52;;;;;;;8.24;100.00;96270.13;5067006;28;20402;-77
2023/04/17 11:08:32;;;;;;;11.45;8.15;;;;;;;8.11;100.00;96279.31;5064985;28;20071;-78
2023/04/17 11:10:59;;;;;;;11.63;10.18;;;;;;;8.52;100.00;96272.31;5081967;28;20067;-76
2023/04/17 11:13:25;;;;;;;10.68;7.80;;;;;;;8.63;100.00;96271.81;5074644;28;20056;-77
2023/04/17 11:15:52;;;;;;;9.38;7.65;;;;;;;8.83;100.00;96268.28;5069451;28;20136;-76
2023/04/17 11:18:21;;;;;;;10.05;7.32;;;;;;;8.86;100.00;96261.22;5053887;28;20380;-77
2023/04/17 11:20:50;;;;;;;8.60;7.50;;;;;;;9.06;100.00;96267.19;5062240;28;20049;-77